Terminal Aerodrome Forecast
Issued by NWS

Home | Current Version | Previous Version | Text Only | Print | Product List | Glossary On
Versions: 1 2 3 4 5 6 7 8 9 10 11 12 13 14 15
000
FTUS41 KGYX 011720
TAFRKD
TAF
KRKD 011720Z 0118/0218 04005KT P6SM OVC100
     FM012200 19006KT P6SM OVC050
     FM020100 19008KT P6SM -SN OVC025
     FM020400 19005KT 1 1/2SM -SN BR OVC015
     FM020700 24003KT 4SM BR OVC025
     FM021000 28004KT P6SM BKN045
     FM021400 20011G21KT P6SM SCT045
      AMD LTD TO CLD VIS AND WIND=

USA.gov is the U.S. government's official web portal to all federal, state and local government web resources and services.